PWSweather.com
Personal Weather Stations
Station Observations
WDJH1
Il, Wood Dale, IL 60191

IlWood Dale, IL 60191

Lat: 41.9730204, Lon: -87.9791968

Elevation: 730

Station Type:

High Low Average
Temperature 53.3°F11.8°C 29.9°F-1.2°C 40.4°F4.7°C
Dew Point 52.8°F11.6°C 25.8°F-3.4°C 38.9°F3.8°C
Winds 17.0 mph 27.4 kmh Calm Calm 7.0 mph WSW11.3 kmh WSW
Wind Gusts 33.0 mph53.1 kmh -- 13.0 mph20.9 kmh
Humidity 98% 80% 94%
Pressure 30.06 in1017.9 mb 29.38 in994.9 mb -
Precipitation 0.08 in2.0 mm - -
Hour Temp Dew Point Humidity Winds Wind Gusts Pressure Precip Precip Rate Daily Precip Total
12:00 AM 53.3°F11.8°C 52.8°F11.6°C 98% 1.0 mph NE1.6 kmh NE 4.0 mph6.4 kmh 29.40 in995.6 mb 0.08 in2.0 mm 0.00 in0.0 mm 0.08 in2.0 mm
12:15 AM 53.1°F11.7°C 52.6°F11.4°C 98% 1.0 mph WNW1.6 kmh WNW 2.0 mph3.2 kmh 29.43 in996.6 mb 0.03 in0.8 mm 0.00 in0.0 mm 0.08 in2.0 mm
12:30 AM 52.9°F11.6°C 52.4°F11.3°C 98% Calm Calm -- 29.44 in997.0 mb 0.00 in0.0 mm 0.00 in0.0 mm 0.08 in2.0 mm
12:45 AM 52.9°F11.6°C 52.4°F11.3°C 98% Calm Calm 2.0 mph3.2 kmh 29.44 in997.0 mb 0.00 in0.0 mm 0.00 in0.0 mm 0.08 in2.0 mm
01:00 AM 52.8°F11.6°C 52.3°F11.3°C 98% 1.0 mph SW1.6 kmh SW 2.0 mph3.2 kmh 29.43 in996.6 mb 0.00 in0.0 mm 0.00 in0.0 mm 0.08 in2.0 mm
01:15 AM 52.7°F11.5°C 52.2°F11.2°C 98% 2.0 mph SW3.2 kmh SW 4.0 mph6.4 kmh 29.44 in997.0 mb 0.00 in0.0 mm 0.00 in0.0 mm 0.08 in2.0 mm
01:30 AM 52.4°F11.3°C 51.9°F11.1°C 98% 2.0 mph SW3.2 kmh SW 4.0 mph6.4 kmh 29.43 in996.6 mb 0.00 in0.0 mm 0.00 in0.0 mm 0.08 in2.0 mm
01:45 AM 52.1°F11.2°C 51.6°F10.9°C 98% 2.0 mph SSW3.2 kmh SSW 4.0 mph6.4 kmh 29.43 in996.6 mb 0.00 in0.0 mm 0.00 in0.0 mm 0.08 in2.0 mm
02:00 AM 51.8°F11.0°C 51.3°F10.7°C 98% 3.0 mph SW4.8 kmh SW 5.0 mph8.0 kmh 29.41 in995.9 mb 0.00 in0.0 mm 0.00 in0.0 mm 0.08 in2.0 mm
02:15 AM 51.5°F10.8°C 51.0°F10.6°C 98% 2.0 mph SSW3.2 kmh SSW 4.0 mph6.4 kmh 29.39 in995.3 mb 0.00 in0.0 mm 0.00 in0.0 mm 0.08 in2.0 mm
02:30 AM 50.5°F10.3°C 50.0°F10.0°C 98% 1.0 mph SW1.6 kmh SW 2.0 mph3.2 kmh 29.38 in994.9 mb 0.00 in0.0 mm 0.00 in0.0 mm 0.08 in2.0 mm
02:45 AM 50.5°F10.3°C 50.0°F10.0°C 98% 1.0 mph SW1.6 kmh SW 2.0 mph3.2 kmh 29.39 in995.3 mb 0.00 in0.0 mm 0.00 in0.0 mm 0.08 in2.0 mm
03:00 AM 50.5°F10.3°C 50.0°F10.0°C 98% 1.0 mph SW1.6 kmh SW 2.0 mph3.2 kmh 29.38 in994.9 mb 0.00 in0.0 mm 0.00 in0.0 mm 0.08 in2.0 mm
03:15 AM 50.5°F10.3°C 50.0°F10.0°C 98% 1.0 mph SW1.6 kmh SW 2.0 mph3.2 kmh 29.39 in995.3 mb 0.00 in0.0 mm 0.00 in0.0 mm 0.08 in2.0 mm
03:30 AM 50.5°F10.3°C 50.0°F10.0°C 98% 1.0 mph SW1.6 kmh SW 2.0 mph3.2 kmh 29.40 in995.6 mb 0.00 in0.0 mm 0.00 in0.0 mm 0.08 in2.0 mm
03:45 AM 50.5°F10.3°C 50.0°F10.0°C 98% 1.0 mph SW1.6 kmh SW 2.0 mph3.2 kmh 29.41 in995.9 mb 0.00 in0.0 mm 0.00 in0.0 mm 0.08 in2.0 mm
04:00 AM 50.5°F10.3°C 50.0°F10.0°C 98% 1.0 mph SW1.6 kmh SW 2.0 mph3.2 kmh 29.41 in995.9 mb 0.00 in0.0 mm 0.00 in0.0 mm 0.08 in2.0 mm
04:15 AM 50.5°F10.3°C 50.0°F10.0°C 98% 1.0 mph SW1.6 kmh SW 2.0 mph3.2 kmh 29.42 in996.3 mb 0.00 in0.0 mm 0.00 in0.0 mm 0.08 in2.0 mm
04:30 AM 50.5°F10.3°C 50.0°F10.0°C 98% 1.0 mph SW1.6 kmh SW 2.0 mph3.2 kmh 29.43 in996.6 mb 0.00 in0.0 mm 0.00 in0.0 mm 0.08 in2.0 mm
04:45 AM 50.5°F10.3°C 50.0°F10.0°C 98% 1.0 mph SW1.6 kmh SW 2.0 mph3.2 kmh 29.43 in996.6 mb 0.00 in0.0 mm 0.00 in0.0 mm 0.08 in2.0 mm
05:00 AM 50.5°F10.3°C 50.0°F10.0°C 98% 1.0 mph SW1.6 kmh SW 2.0 mph3.2 kmh 29.43 in996.6 mb 0.00 in0.0 mm 0.00 in0.0 mm 0.08 in2.0 mm
05:15 AM 50.5°F10.3°C 50.0°F10.0°C 98% 1.0 mph SW1.6 kmh SW 2.0 mph3.2 kmh 29.42 in996.3 mb 0.00 in0.0 mm 0.00 in0.0 mm 0.08 in2.0 mm
05:30 AM 50.5°F10.3°C 50.0°F10.0°C 98% 1.0 mph SW1.6 kmh SW 2.0 mph3.2 kmh 29.42 in996.3 mb 0.00 in0.0 mm 0.00 in0.0 mm 0.08 in2.0 mm
05:45 AM 50.5°F10.3°C 50.0°F10.0°C 98% 1.0 mph SW1.6 kmh SW 2.0 mph3.2 kmh 29.43 in996.6 mb 0.00 in0.0 mm 0.00 in0.0 mm 0.08 in2.0 mm
06:00 AM 50.5°F10.3°C 50.0°F10.0°C 98% 1.0 mph SW1.6 kmh SW 2.0 mph3.2 kmh 29.43 in996.6 mb 0.00 in0.0 mm 0.00 in0.0 mm 0.08 in2.0 mm
06:15 AM 50.5°F10.3°C 50.0°F10.0°C 98% 1.0 mph SW1.6 kmh SW 2.0 mph3.2 kmh 29.42 in996.3 mb 0.00 in0.0 mm 0.00 in0.0 mm 0.08 in2.0 mm
06:30 AM 50.5°F10.3°C 50.0°F10.0°C 98% 1.0 mph SW1.6 kmh SW 2.0 mph3.2 kmh 29.43 in996.6 mb 0.00 in0.0 mm 0.00 in0.0 mm 0.08 in2.0 mm
06:45 AM 50.5°F10.3°C 50.0°F10.0°C 98% 1.0 mph SW1.6 kmh SW 2.0 mph3.2 kmh 29.43 in996.6 mb 0.00 in0.0 mm 0.00 in0.0 mm 0.08 in2.0 mm
07:00 AM 50.5°F10.3°C 50.0°F10.0°C 98% 1.0 mph SW1.6 kmh SW 2.0 mph3.2 kmh 29.42 in996.3 mb 0.00 in0.0 mm 0.00 in0.0 mm 0.08 in2.0 mm
07:15 AM 50.5°F10.3°C 50.0°F10.0°C 98% 1.0 mph SW1.6 kmh SW 2.0 mph3.2 kmh 29.41 in995.9 mb 0.00 in0.0 mm 0.00 in0.0 mm 0.08 in2.0 mm
07:30 AM 50.5°F10.3°C 50.0°F10.0°C 98% 1.0 mph SW1.6 kmh SW 2.0 mph3.2 kmh 29.42 in996.3 mb 0.00 in0.0 mm 0.00 in0.0 mm 0.08 in2.0 mm
07:45 AM 50.5°F10.3°C 50.0°F10.0°C 98% 1.0 mph SW1.6 kmh SW 2.0 mph3.2 kmh 29.43 in996.6 mb 0.00 in0.0 mm 0.00 in0.0 mm 0.08 in2.0 mm
08:00 AM 40.8°F4.9°C 40.3°F4.6°C 98% 1.0 mph SW1.6 kmh SW 2.0 mph3.2 kmh 29.43 in996.6 mb 0.00 in0.0 mm 0.00 in0.0 mm 0.08 in2.0 mm
08:15 AM 40.8°F4.9°C 40.3°F4.6°C 98% 1.0 mph W1.6 kmh W 6.0 mph9.7 kmh 29.45 in997.3 mb 0.00 in0.0 mm 0.00 in0.0 mm 0.08 in2.0 mm
08:30 AM 40.8°F4.9°C 40.3°F4.6°C 98% 3.0 mph WNW4.8 kmh WNW 6.0 mph9.7 kmh 29.45 in997.3 mb 0.00 in0.0 mm 0.00 in0.0 mm 0.08 in2.0 mm
08:45 AM 40.7°F4.8°C 40.2°F4.6°C 98% 4.0 mph NW6.4 kmh NW 7.0 mph11.3 kmh 29.46 in997.6 mb 0.01 in0.3 mm 0.04 in1.0 mm 0.01 in0.3 mm
09:00 AM 40.7°F4.8°C 40.2°F4.6°C 98% 4.0 mph NW6.4 kmh NW 8.0 mph12.9 kmh 29.46 in997.6 mb 0.02 in0.5 mm 0.01 in0.3 mm 0.02 in0.5 mm
09:15 AM 40.4°F4.7°C 39.9°F4.4°C 98% 5.0 mph NW8.0 kmh NW 9.0 mph14.5 kmh 29.47 in998.0 mb 0.02 in0.5 mm 0.00 in0.0 mm 0.02 in0.5 mm
09:30 AM 39.4°F4.1°C 38.9°F3.8°C 98% 5.0 mph NW8.0 kmh NW 9.0 mph14.5 kmh 29.47 in998.0 mb 0.03 in0.8 mm 0.04 in1.0 mm 0.03 in0.8 mm
09:45 AM 39.2°F4.0°C 38.7°F3.7°C 98% 5.0 mph WNW8.0 kmh WNW 9.0 mph14.5 kmh 29.50 in999.0 mb 0.03 in0.8 mm 0.00 in0.0 mm 0.04 in1.0 mm
10:00 AM 39.4°F4.1°C 38.9°F3.8°C 98% 10.0 mph WNW16.1 kmh WNW 18.0 mph29.0 kmh 29.52 in999.7 mb 0.03 in0.8 mm 0.00 in0.0 mm 0.05 in1.3 mm
10:15 AM 38.4°F3.6°C 37.9°F3.3°C 98% 11.0 mph WNW17.7 kmh WNW 21.0 mph33.8 kmh 29.52 in999.7 mb 0.04 in1.0 mm 0.04 in1.0 mm 0.06 in1.5 mm
10:30 AM 37.9°F3.3°C 37.4°F3.0°C 98% 11.0 mph WNW17.7 kmh WNW 20.0 mph32.2 kmh 29.53 in1000.0 mb 0.03 in0.8 mm 0.00 in0.0 mm 0.06 in1.5 mm
10:45 AM 37.9°F3.3°C 37.4°F3.0°C 98% 10.0 mph WNW16.1 kmh WNW 18.0 mph29.0 kmh 29.54 in1000.3 mb 0.02 in0.5 mm 0.00 in0.0 mm 0.06 in1.5 mm
11:00 AM 38.2°F3.4°C 37.7°F3.2°C 98% 9.0 mph WNW14.5 kmh WNW 17.0 mph27.4 kmh 29.55 in1000.7 mb 0.01 in0.3 mm 0.00 in0.0 mm 0.06 in1.5 mm
11:15 AM 38.4°F3.6°C 37.9°F3.3°C 98% 9.0 mph W14.5 kmh W 18.0 mph29.0 kmh 29.55 in1000.7 mb 0.00 in0.0 mm 0.00 in0.0 mm 0.06 in1.5 mm
11:30 AM 38.3°F3.5°C 37.5°F3.1°C 97% 12.0 mph WNW19.3 kmh WNW 20.0 mph32.2 kmh 29.56 in1001.0 mb 0.00 in0.0 mm 0.00 in0.0 mm 0.06 in1.5 mm
11:45 AM 38.5°F3.6°C 37.5°F3.1°C 96% 12.0 mph W19.3 kmh W 25.0 mph40.2 kmh 29.57 in1001.4 mb 0.00 in0.0 mm 0.00 in0.0 mm 0.06 in1.5 mm
12:00 PM 38.8°F3.8°C 37.2°F2.9°C 94% 11.0 mph W17.7 kmh W 20.0 mph32.2 kmh 29.57 in1001.4 mb 0.00 in0.0 mm 0.00 in0.0 mm 0.06 in1.5 mm
12:15 PM 38.7°F3.7°C 36.6°F2.6°C 92% 12.0 mph W19.3 kmh W 21.0 mph33.8 kmh 29.58 in1001.7 mb 0.00 in0.0 mm 0.00 in0.0 mm 0.06 in1.5 mm
12:30 PM 38.8°F3.8°C 36.4°F2.4°C 91% 14.0 mph WNW22.5 kmh WNW 25.0 mph40.2 kmh 29.58 in1001.7 mb 0.00 in0.0 mm 0.00 in0.0 mm 0.06 in1.5 mm
12:45 PM 39.1°F3.9°C 36.1°F2.3°C 89% 12.0 mph W19.3 kmh W 24.0 mph38.6 kmh 29.58 in1001.7 mb 0.00 in0.0 mm 0.00 in0.0 mm 0.06 in1.5 mm
01:00 PM 39.1°F3.9°C 36.1°F2.3°C 89% 11.0 mph WNW17.7 kmh WNW 16.0 mph25.7 kmh 29.59 in1002.0 mb 0.00 in0.0 mm 0.00 in0.0 mm 0.06 in1.5 mm
01:15 PM 38.9°F3.8°C 35.9°F2.2°C 89% 10.0 mph W16.1 kmh W 17.0 mph27.4 kmh 29.59 in1002.0 mb 0.00 in0.0 mm 0.00 in0.0 mm 0.06 in1.5 mm
01:30 PM 38.8°F3.8°C 35.6°F2.0°C 88% 11.0 mph W17.7 kmh W 21.0 mph33.8 kmh 29.61 in1002.7 mb 0.00 in0.0 mm 0.00 in0.0 mm 0.06 in1.5 mm
01:45 PM 38.3°F3.5°C 35.1°F1.7°C 88% 11.0 mph W17.7 kmh W 21.0 mph33.8 kmh 29.61 in1002.7 mb 0.00 in0.0 mm 0.00 in0.0 mm 0.06 in1.5 mm
02:00 PM 37.6°F3.1°C 36.3°F2.4°C 95% 9.0 mph W14.5 kmh W 21.0 mph33.8 kmh 29.61 in1002.7 mb 0.00 in0.0 mm 0.00 in0.0 mm 0.06 in1.5 mm
02:15 PM 37.9°F3.3°C 36.9°F2.7°C 96% 10.0 mph W16.1 kmh W 17.0 mph27.4 kmh 29.62 in1003.0 mb 0.00 in0.0 mm 0.00 in0.0 mm 0.06 in1.5 mm
02:30 PM 35.9°F2.2°C 34.6°F1.4°C 95% 11.0 mph WNW17.7 kmh WNW 22.0 mph35.4 kmh 29.63 in1003.4 mb 0.00 in0.0 mm 0.00 in0.0 mm 0.06 in1.5 mm
02:45 PM 36.1°F2.3°C 35.3°F1.8°C 97% 10.0 mph W16.1 kmh W 23.0 mph37.0 kmh 29.64 in1003.7 mb 0.00 in0.0 mm 0.00 in0.0 mm 0.06 in1.5 mm
03:00 PM 35.7°F2.1°C 34.9°F1.6°C 97% 11.0 mph W17.7 kmh W 20.0 mph32.2 kmh 29.66 in1004.4 mb 0.01 in0.3 mm 0.01 in0.3 mm 0.07 in1.8 mm
03:15 PM 34.7°F1.5°C 33.7°F0.9°C 96% 12.0 mph WNW19.3 kmh WNW 21.0 mph33.8 kmh 29.67 in1004.7 mb 0.01 in0.3 mm 0.00 in0.0 mm 0.07 in1.8 mm
03:30 PM 34.2°F1.2°C 33.4°F0.8°C 97% 11.0 mph W17.7 kmh W 20.0 mph32.2 kmh 29.68 in1005.1 mb 0.01 in0.3 mm 0.00 in0.0 mm 0.07 in1.8 mm
03:45 PM 33.5°F0.8°C 32.7°F0.4°C 97% 12.0 mph WNW19.3 kmh WNW 21.0 mph33.8 kmh 29.71 in1006.1 mb 0.02 in0.5 mm 0.04 in1.0 mm 0.08 in2.0 mm
04:00 PM 33.1°F0.6°C 32.3°F0.2°C 97% 12.0 mph WNW19.3 kmh WNW 23.0 mph37.0 kmh 29.72 in1006.4 mb 0.01 in0.3 mm 0.00 in0.0 mm 0.08 in2.0 mm
04:15 PM 32.3°F0.2°C 31.5°F-0.3°C 97% 17.0 mph WNW27.4 kmh WNW 33.0 mph53.1 kmh 29.74 in1007.1 mb 0.01 in0.3 mm 0.00 in0.0 mm 0.08 in2.0 mm
04:30 PM 31.8°F-0.1°C 31.0°F-0.6°C 97% 17.0 mph WNW27.4 kmh WNW 29.0 mph46.7 kmh 29.76 in1007.8 mb 0.01 in0.3 mm 0.00 in0.0 mm 0.08 in2.0 mm
04:45 PM 31.2°F-0.4°C 29.9°F-1.2°C 95% 17.0 mph WNW27.4 kmh WNW 25.0 mph40.2 kmh 29.77 in1008.1 mb 0.00 in0.0 mm 0.00 in0.0 mm 0.08 in2.0 mm
05:00 PM 30.4°F-0.9°C 28.6°F-1.9°C 93% 15.0 mph WNW24.1 kmh WNW 26.0 mph41.8 kmh 29.79 in1008.8 mb 0.00 in0.0 mm 0.00 in0.0 mm 0.08 in2.0 mm
05:15 PM 30.1°F-1.1°C 28.8°F-1.8°C 95% 12.0 mph WNW19.3 kmh WNW 24.0 mph38.6 kmh 29.81 in1009.5 mb 0.00 in0.0 mm 0.00 in0.0 mm 0.08 in2.0 mm
05:30 PM 29.9°F-1.2°C 28.1°F-2.2°C 93% 15.0 mph WNW24.1 kmh WNW 28.0 mph45.1 kmh 29.83 in1010.2 mb 0.00 in0.0 mm 0.00 in0.0 mm 0.08 in2.0 mm
05:45 PM 30.2°F-1.0°C 28.4°F-2.0°C 93% 12.0 mph WNW19.3 kmh WNW 25.0 mph40.2 kmh 29.84 in1010.5 mb 0.00 in0.0 mm 0.00 in0.0 mm 0.08 in2.0 mm
06:00 PM 30.7°F-0.7°C 28.9°F-1.7°C 93% 12.0 mph WNW19.3 kmh WNW 24.0 mph38.6 kmh 29.86 in1011.2 mb 0.00 in0.0 mm 0.00 in0.0 mm 0.08 in2.0 mm
06:15 PM 31.2°F-0.4°C 28.9°F-1.7°C 91% 12.0 mph WNW19.3 kmh WNW 20.0 mph32.2 kmh 29.88 in1011.9 mb 0.00 in0.0 mm 0.00 in0.0 mm 0.08 in2.0 mm
06:30 PM 31.2°F-0.4°C 28.9°F-1.7°C 91% 13.0 mph WNW20.9 kmh WNW 22.0 mph35.4 kmh 29.89 in1012.2 mb 0.00 in0.0 mm 0.00 in0.0 mm 0.08 in2.0 mm
06:45 PM 31.2°F-0.4°C 28.9°F-1.7°C 91% 11.0 mph WNW17.7 kmh WNW 20.0 mph32.2 kmh 29.90 in1012.5 mb 0.00 in0.0 mm 0.00 in0.0 mm 0.08 in2.0 mm
07:00 PM 31.8°F-0.1°C 29.5°F-1.4°C 91% 13.0 mph WNW20.9 kmh WNW 19.0 mph30.6 kmh 29.91 in1012.9 mb 0.00 in0.0 mm 0.00 in0.0 mm 0.08 in2.0 mm
07:15 PM 32.0°F0.0°C 29.4°F-1.4°C 90% 13.0 mph WNW20.9 kmh WNW 23.0 mph37.0 kmh 29.93 in1013.5 mb 0.00 in0.0 mm 0.00 in0.0 mm 0.08 in2.0 mm
07:30 PM 32.1°F0.1°C 29.5°F-1.4°C 90% 14.0 mph WNW22.5 kmh WNW 22.0 mph35.4 kmh 29.93 in1013.5 mb 0.00 in0.0 mm 0.00 in0.0 mm 0.08 in2.0 mm
07:45 PM 32.3°F0.2°C 29.7°F-1.3°C 90% 11.0 mph WNW17.7 kmh WNW 19.0 mph30.6 kmh 29.94 in1013.9 mb 0.00 in0.0 mm 0.00 in0.0 mm 0.08 in2.0 mm
08:00 PM 32.0°F0.0°C 29.7°F-1.3°C 91% 12.0 mph WNW19.3 kmh WNW 21.0 mph33.8 kmh 29.95 in1014.2 mb 0.00 in0.0 mm 0.00 in0.0 mm 0.08 in2.0 mm
08:15 PM 32.0°F0.0°C 29.1°F-1.6°C 89% 12.0 mph WNW19.3 kmh WNW 22.0 mph35.4 kmh 29.97 in1014.9 mb 0.00 in0.0 mm 0.00 in0.0 mm 0.08 in2.0 mm
08:30 PM 32.1°F0.1°C 28.9°F-1.7°C 88% 9.0 mph NW14.5 kmh NW 18.0 mph29.0 kmh 29.98 in1015.2 mb 0.00 in0.0 mm 0.00 in0.0 mm 0.08 in2.0 mm
08:45 PM 32.1°F0.1°C 28.9°F-1.7°C 88% 11.0 mph WNW17.7 kmh WNW 20.0 mph32.2 kmh 29.99 in1015.6 mb 0.00 in0.0 mm 0.00 in0.0 mm 0.08 in2.0 mm
09:00 PM 32.1°F0.1°C 28.9°F-1.7°C 88% 11.0 mph WNW17.7 kmh WNW 19.0 mph30.6 kmh 30.00 in1015.9 mb 0.00 in0.0 mm 0.00 in0.0 mm 0.08 in2.0 mm
09:15 PM 32.2°F0.1°C 29.0°F-1.7°C 88% 12.0 mph WNW19.3 kmh WNW 19.0 mph30.6 kmh 30.01 in1016.3 mb 0.00 in0.0 mm 0.00 in0.0 mm 0.08 in2.0 mm
09:30 PM 32.3°F0.2°C 28.6°F-1.9°C 86% 10.0 mph WNW16.1 kmh WNW 17.0 mph27.4 kmh 30.02 in1016.6 mb 0.00 in0.0 mm 0.00 in0.0 mm 0.08 in2.0 mm
09:45 PM 32.3°F0.2°C 28.6°F-1.9°C 86% 9.0 mph NW14.5 kmh NW 18.0 mph29.0 kmh 30.02 in1016.6 mb 0.00 in0.0 mm 0.00 in0.0 mm 0.08 in2.0 mm
10:00 PM 32.2°F0.1°C 28.5°F-1.9°C 86% 8.0 mph NW12.9 kmh NW 13.0 mph20.9 kmh 30.03 in1016.9 mb 0.00 in0.0 mm 0.00 in0.0 mm 0.08 in2.0 mm
10:15 PM 32.1°F0.1°C 28.4°F-2.0°C 86% 6.0 mph NW9.7 kmh NW 11.0 mph17.7 kmh 30.03 in1016.9 mb 0.00 in0.0 mm 0.00 in0.0 mm 0.08 in2.0 mm
10:30 PM 32.1°F0.1°C 28.4°F-2.0°C 86% 4.0 mph NW6.4 kmh NW 9.0 mph14.5 kmh 30.04 in1017.3 mb 0.00 in0.0 mm 0.00 in0.0 mm 0.08 in2.0 mm
10:45 PM 32.1°F0.1°C 28.1°F-2.2°C 85% 7.0 mph NW11.3 kmh NW 12.0 mph19.3 kmh 30.04 in1017.3 mb 0.00 in0.0 mm 0.00 in0.0 mm 0.08 in2.0 mm
11:00 PM 32.0°F0.0°C 27.1°F-2.7°C 82% 9.0 mph WNW14.5 kmh WNW 18.0 mph29.0 kmh 30.05 in1017.6 mb 0.00 in0.0 mm 0.00 in0.0 mm 0.08 in2.0 mm
11:15 PM 31.6°F-0.2°C 26.1°F-3.3°C 80% 10.0 mph WNW16.1 kmh WNW 17.0 mph27.4 kmh 30.05 in1017.6 mb 0.00 in0.0 mm 0.00 in0.0 mm 0.08 in2.0 mm
11:30 PM 31.3°F-0.4°C 25.8°F-3.4°C 80% 9.0 mph WNW14.5 kmh WNW 16.0 mph25.7 kmh 30.05 in1017.6 mb 0.00 in0.0 mm 0.00 in0.0 mm 0.08 in2.0 mm
11:45 PM 31.0°F-0.6°C 25.9°F-3.4°C 81% 7.0 mph WNW11.3 kmh WNW 11.0 mph17.7 kmh 30.06 in1017.9 mb 0.00 in0.0 mm 0.00 in0.0 mm 0.08 in2.0 mm